sensor_id;sensor_type;location;lat;lon;timestamp;pressure;altitude;pressure_sealevel;temperature;humidity
59337;BME280;45115;52.002;4.686;2022-08-19T00:01:14;101419.09;;;16.21;100.00
59337;BME280;45115;52.002;4.686;2022-08-19T00:03:41;101412.75;;;16.17;100.00
59337;BME280;45115;52.002;4.686;2022-08-19T00:06:09;101410.94;;;16.12;100.00
59337;BME280;45115;52.002;4.686;2022-08-19T00:08:35;101411.50;;;16.09;100.00
59337;BME280;45115;52.002;4.686;2022-08-19T00:11:02;101415.28;;;16.08;100.00
59337;BME280;45115;52.002;4.686;2022-08-19T00:13:29;101411.03;;;16.07;100.00
59337;BME280;45115;52.002;4.686;2022-08-19T00:15:56;101411.03;;;16.07;100.00
59337;BME280;45115;52.002;4.686;2022-08-19T00:18:24;101414.78;;;16.06;100.00
59337;BME280;45115;52.002;4.686;2022-08-19T00:20:50;101418.63;;;16.00;100.00
59337;BME280;45115;52.002;4.686;2022-08-19T00:23:18;101419.47;;;15.95;100.00
59337;BME280;45115;52.002;4.686;2022-08-19T00:25:45;101424.09;;;15.89;100.00
59337;BME280;45115;52.002;4.686;2022-08-19T00:28:12;101419.00;;;15.93;100.00
59337;BME280;45115;52.002;4.686;2022-08-19T00:30:38;101412.97;;;16.01;100.00
59337;BME280;45115;52.002;4.686;2022-08-19T00:33:06;101410.75;;;16.09;100.00
59337;BME280;45115;52.002;4.686;2022-08-19T00:35:32;101409.66;;;16.10;100.00
59337;BME280;45115;52.002;4.686;2022-08-19T00:37:59;101403.88;;;16.02;100.00
59337;BME280;45115;52.002;4.686;2022-08-19T00:40:27;101401.69;;;16.04;100.00
59337;BME280;45115;52.002;4.686;2022-08-19T00:42:56;101403.19;;;16.11;100.00
59337;BME280;45115;52.002;4.686;2022-08-19T00:45:25;101395.91;;;16.16;100.00
59337;BME280;45115;52.002;4.686;2022-08-19T00:47:52;101399.97;;;16.14;100.00
59337;BME280;45115;52.002;4.686;2022-08-19T00:50:20;101401.13;;;16.07;100.00
59337;BME280;45115;52.002;4.686;2022-08-19T00:52:50;101406.31;;;15.99;100.00
59337;BME280;45115;52.002;4.686;2022-08-19T00:55:19;101411.38;;;16.00;100.00
59337;BME280;45115;52.002;4.686;2022-08-19T00:57:52;101406.09;;;15.95;100.00
59337;BME280;45115;52.002;4.686;2022-08-19T01:00:20;101410.72;;;15.89;100.00
59337;BME280;45115;52.002;4.686;2022-08-19T01:02:48;101418.53;;;15.86;100.00
59337;BME280;45115;52.002;4.686;2022-08-19T01:05:17;101413.25;;;15.80;100.00
59337;BME280;45115;52.002;4.686;2022-08-19T01:07:47;101418.00;;;15.84;100.00
59337;BME280;45115;52.002;4.686;2022-08-19T01:10:25;101419.84;;;15.88;100.00
59337;BME280;45115;52.002;4.686;2022-08-19T01:12:53;101416.94;;;15.85;100.00
59337;BME280;45115;52.002;4.686;2022-08-19T01:15:24;101423.38;;;15.84;100.00
59337;BME280;45115;52.002;4.686;2022-08-19T01:17:53;101410.94;;;15.74;100.00
59337;BME280;45115;52.002;4.686;2022-08-19T01:20:22;101419.53;;;15.71;100.00
59337;BME280;45115;52.002;4.686;2022-08-19T01:22:52;101416.06;;;15.70;100.00
59337;BME280;45115;52.002;4.686;2022-08-19T01:25:22;101412.88;;;15.68;100.00
59337;BME280;45115;52.002;4.686;2022-08-19T01:27:50;101409.41;;;15.67;100.00
59337;BME280;45115;52.002;4.686;2022-08-19T01:30:19;101416.84;;;15.71;100.00
59337;BME280;45115;52.002;4.686;2022-08-19T01:32:47;101425.41;;;15.73;100.00
59337;BME280;45115;52.002;4.686;2022-08-19T01:35:15;101412.59;;;15.70;100.00
59337;BME280;45115;52.002;4.686;2022-08-19T01:37:45;101413.75;;;15.83;100.00
59337;BME280;45115;52.002;4.686;2022-08-19T01:40:13;101415.63;;;15.82;100.00
59337;BME280;45115;52.002;4.686;2022-08-19T01:42:40;101423.38;;;15.84;100.00
59337;BME280;45115;52.002;4.686;2022-08-19T01:45:07;101424.25;;;15.79;100.00
59337;BME280;45115;52.002;4.686;2022-08-19T01:47:35;101419.97;;;15.78;100.00
59337;BME280;45115;52.002;4.686;2022-08-19T01:50:02;101425.91;;;15.75;100.00
59337;BME280;45115;52.002;4.686;2022-08-19T01:52:29;101429.13;;;15.72;100.00
59337;BME280;45115;52.002;4.686;2022-08-19T01:54:56;101422.72;;;15.73;100.00
59337;BME280;45115;52.002;4.686;2022-08-19T01:57:24;101423.97;;;15.80;100.00
59337;BME280;45115;52.002;4.686;2022-08-19T01:59:51;101422.66;;;15.78;100.00
59337;BME280;45115;52.002;4.686;2022-08-19T02:02:18;101420.53;;;15.75;100.00
59337;BME280;45115;52.002;4.686;2022-08-19T02:04:44;101409.41;;;15.67;100.00
59337;BME280;45115;52.002;4.686;2022-08-19T02:07:12;101413.22;;;15.61;100.00
59337;BME280;45115;52.002;4.686;2022-08-19T02:09:38;101411.63;;;15.60;100.00
59337;BME280;45115;52.002;4.686;2022-08-19T02:12:06;101417.50;;;15.62;100.00
59337;BME280;45115;52.002;4.686;2022-08-19T02:14:35;101422.84;;;15.62;100.00
59337;BME280;45115;52.002;4.686;2022-08-19T02:17:02;101427.13;;;15.63;100.00
59337;BME280;45115;52.002;4.686;2022-08-19T02:19:29;101420.97;;;15.63;100.00
59337;BME280;45115;52.002;4.686;2022-08-19T02:21:58;101420.19;;;15.62;100.00
59337;BME280;45115;52.002;4.686;2022-08-19T02:24:25;101417.50;;;15.62;100.00
59337;BME280;45115;52.002;4.686;2022-08-19T02:26:52;101417.56;;;15.57;100.00
59337;BME280;45115;52.002;4.686;2022-08-19T02:29:18;101412.94;;;15.63;100.00
59337;BME280;45115;52.002;4.686;2022-08-19T02:31:47;101412.44;;;15.61;100.00
59337;BME280;45115;52.002;4.686;2022-08-19T02:34:14;101417.78;;;15.61;100.00
59337;BME280;45115;52.002;4.686;2022-08-19T02:36:40;101417.50;;;15.62;100.00
59337;BME280;45115;52.002;4.686;2022-08-19T02:39:07;101413.53;;;15.60;100.00
59337;BME280;45115;52.002;4.686;2022-08-19T02:41:33;101405.44;;;15.65;100.00
59337;BME280;45115;52.002;4.686;2022-08-19T02:44:02;101408.19;;;15.79;100.00
59337;BME280;45115;52.002;4.686;2022-08-19T02:46:32;101395.75;;;15.88;100.00
59337;BME280;45115;52.002;4.686;2022-08-19T02:49:02;101394.94;;;15.88;100.00
59337;BME280;45115;52.002;4.686;2022-08-19T02:51:32;101396.81;;;15.87;100.00
59337;BME280;45115;52.002;4.686;2022-08-19T02:53:59;101401.97;;;15.84;100.00
59337;BME280;45115;52.002;4.686;2022-08-19T02:56:26;101388.09;;;15.81;100.00
59337;BME280;45115;52.002;4.686;2022-08-19T02:58:53;101392.22;;;15.74;100.00
59337;BME280;45115;52.002;4.686;2022-08-19T03:01:22;101385.28;;;15.73;100.00
59337;BME280;45115;52.002;4.686;2022-08-19T03:03:49;101385.41;;;15.62;100.00
59337;BME280;45115;52.002;4.686;2022-08-19T03:06:18;101391.81;;;15.61;100.00
59337;BME280;45115;52.002;4.686;2022-08-19T03:08:46;101388.66;;;15.59;100.00
59337;BME280;45115;52.002;4.686;2022-08-19T03:11:14;101384.97;;;15.55;100.00
59337;BME280;45115;52.002;4.686;2022-08-19T03:13:41;101379.47;;;15.46;100.00
59337;BME280;45115;52.002;4.686;2022-08-19T03:16:09;101392.28;;;15.49;100.00
59337;BME280;45115;52.002;4.686;2022-08-19T03:18:36;101385.31;;;15.48;100.00
59337;BME280;45115;52.002;4.686;2022-08-19T03:21:04;101382.75;;;15.62;100.00
59337;BME280;45115;52.002;4.686;2022-08-19T03:23:32;101383.09;;;15.75;100.00
59337;BME280;45115;52.002;4.686;2022-08-19T03:26:02;101376.72;;;15.71;100.00
59337;BME280;45115;52.002;4.686;2022-08-19T03:28:29;101376.59;;;15.62;100.00
59337;BME280;45115;52.002;4.686;2022-08-19T03:30:59;101369.19;;;15.53;100.00
59337;BME280;45115;52.002;4.686;2022-08-19T03:33:27;101370.34;;;15.47;100.00
59337;BME280;45115;52.002;4.686;2022-08-19T03:36:03;101365.72;;;15.34;100.00
59337;BME280;45115;52.002;4.686;2022-08-19T03:38:31;101371.84;;;15.34;100.00
59337;BME280;45115;52.002;4.686;2022-08-19T03:41:02;101367.09;;;15.31;100.00
59337;BME280;45115;52.002;4.686;2022-08-19T03:43:29;101360.38;;;15.34;100.00
59337;BME280;45115;52.002;4.686;2022-08-19T03:46:03;101381.69;;;15.39;100.00
59337;BME280;45115;52.002;4.686;2022-08-19T03:48:31;101383.50;;;15.44;100.00
59337;BME280;45115;52.002;4.686;2022-08-19T03:50:59;101385.09;;;15.45;100.00
59337;BME280;45115;52.002;4.686;2022-08-19T03:53:27;101381.63;;;15.44;100.00
59337;BME280;45115;52.002;4.686;2022-08-19T03:55:56;101389.19;;;15.37;100.00
59337;BME280;45115;52.002;4.686;2022-08-19T03:58:24;101380.47;;;15.31;100.00
59337;BME280;45115;52.002;4.686;2022-08-19T04:00:51;101381.03;;;15.28;100.00
59337;BME280;45115;52.002;4.686;2022-08-19T04:03:17;101393.34;;;15.24;100.00
59337;BME280;45115;52.002;4.686;2022-08-19T04:05:46;101393.81;;;15.31;100.00
59337;BME280;45115;52.002;4.686;2022-08-19T04:08:13;101397.56;;;15.30;100.00
59337;BME280;45115;52.002;4.686;2022-08-19T04:10:46;101390.63;;;15.29;100.00
59337;BME280;45115;52.002;4.686;2022-08-19T04:13:16;101391.38;;;15.35;100.00
59337;BME280;45115;52.002;4.686;2022-08-19T04:15:45;101392.63;;;15.43;100.00
59337;BME280;45115;52.002;4.686;2022-08-19T04:18:12;101385.69;;;15.41;100.00
59337;BME280;45115;52.002;4.686;2022-08-19T04:20:41;101380.84;;;15.44;100.00
59337;BME280;45115;52.002;4.686;2022-08-19T04:23:07;101396.53;;;15.50;100.00
59337;BME280;45115;52.002;4.686;2022-08-19T04:25:36;101390.66;;;15.48;100.00
59337;BME280;45115;52.002;4.686;2022-08-19T04:28:04;101395.38;;;15.57;100.00
59337;BME280;45115;52.002;4.686;2022-08-19T04:30:37;101392.28;;;15.49;100.00
59337;BME280;45115;52.002;4.686;2022-08-19T04:35:35;101394.81;;;15.60;100.00
59337;BME280;45115;52.002;4.686;2022-08-19T04:38:02;101391.25;;;15.64;100.00
59337;BME280;45115;52.002;4.686;2022-08-19T04:40:28;101390.97;;;15.66;100.00
59337;BME280;45115;52.002;4.686;2022-08-19T04:43:13;101394.75;;;15.65;100.00
59337;BME280;45115;52.002;4.686;2022-08-19T04:45:42;101399.44;;;15.73;100.00
59337;BME280;45115;52.002;4.686;2022-08-19T04:48:09;101395.72;;;15.69;100.00
59337;BME280;45115;52.002;4.686;2022-08-19T04:50:39;101401.47;;;15.81;100.00
59337;BME280;45115;52.002;4.686;2022-08-19T04:53:06;101402.63;;;16.14;100.00
59337;BME280;45115;52.002;4.686;2022-08-19T04:55:33;101396.16;;;16.34;100.00
59337;BME280;45115;52.002;4.686;2022-08-19T04:58:00;101399.56;;;16.40;100.00
59337;BME280;45115;52.002;4.686;2022-08-19T05:00:27;101406.59;;;16.50;100.00
59337;BME280;45115;52.002;4.686;2022-08-19T05:02:55;101407.94;;;16.66;100.00
59337;BME280;45115;52.002;4.686;2022-08-19T05:05:22;101411.22;;;16.77;100.00
59337;BME280;45115;52.002;4.686;2022-08-19T05:07:49;101411.81;;;16.88;100.00
59337;BME280;45115;52.002;4.686;2022-08-19T05:10:15;101413.63;;;16.93;100.00
59337;BME280;45115;52.002;4.686;2022-08-19T05:12:42;101418.28;;;17.01;100.00
59337;BME280;45115;52.002;4.686;2022-08-19T05:15:09;101413.84;;;17.10;100.00
59337;BME280;45115;52.002;4.686;2022-08-19T05:17:36;101419.63;;;17.18;100.00
59337;BME280;45115;52.002;4.686;2022-08-19T05:20:06;101417.34;;;17.25;100.00
59337;BME280;45115;52.002;4.686;2022-08-19T05:22:50;101408.50;;;17.24;100.00
59337;BME280;45115;52.002;4.686;2022-08-19T05:25:20;101409.91;;;17.36;100.00
59337;BME280;45115;52.002;4.686;2022-08-19T05:27:48;101413.75;;;17.44;100.00
59337;BME280;45115;52.002;4.686;2022-08-19T05:30:15;101409.06;;;17.49;100.00
59337;BME280;45115;52.002;4.686;2022-08-19T05:32:43;101413.41;;;17.59;100.00
59337;BME280;45115;52.002;4.686;2022-08-19T05:35:11;101410.44;;;17.61;100.00
59337;BME280;45115;52.002;4.686;2022-08-19T05:37:38;101405.94;;;17.70;100.00
59337;BME280;45115;52.002;4.686;2022-08-19T05:40:06;101416.44;;;17.80;100.00
59337;BME280;45115;52.002;4.686;2022-08-19T05:42:33;101410.97;;;17.86;100.00
59337;BME280;45115;52.002;4.686;2022-08-19T05:45:00;101415.50;;;17.99;100.00
59337;BME280;45115;52.002;4.686;2022-08-19T05:47:26;101404.06;;;18.08;100.00
59337;BME280;45115;52.002;4.686;2022-08-19T05:49:53;101420.44;;;18.20;100.00
59337;BME280;45115;52.002;4.686;2022-08-19T05:52:21;101409.91;;;18.32;100.00
59337;BME280;45115;52.002;4.686;2022-08-19T05:54:48;101415.03;;;18.43;100.00
59337;BME280;45115;52.002;4.686;2022-08-19T05:57:16;101419.47;;;18.48;100.00
59337;BME280;45115;52.002;4.686;2022-08-19T05:59:44;101415.44;;;18.59;100.00
59337;BME280;45115;52.002;4.686;2022-08-19T06:02:13;101410.72;;;18.65;100.00
59337;BME280;45115;52.002;4.686;2022-08-19T06:04:40;101409.22;;;18.81;100.00
59337;BME280;45115;52.002;4.686;2022-08-19T06:07:08;101407.75;;;19.07;100.00
59337;BME280;45115;52.002;4.686;2022-08-19T06:09:36;101410.66;;;19.28;100.00
59337;BME280;45115;52.002;4.686;2022-08-19T06:12:03;101403.13;;;19.48;100.00
59337;BME280;45115;52.002;4.686;2022-08-19T06:14:32;101403.72;;;19.54;100.00
59337;BME280;45115;52.002;4.686;2022-08-19T06:17:00;101399.81;;;19.60;100.00
59337;BME280;45115;52.002;4.686;2022-08-19T06:19:28;101396.63;;;19.58;100.00
59337;BME280;45115;52.002;4.686;2022-08-19T06:21:56;101407.88;;;19.77;100.00
59337;BME280;45115;52.002;4.686;2022-08-19T06:24:27;101410.88;;;19.94;100.00
59337;BME280;45115;52.002;4.686;2022-08-19T06:26:57;101413.09;;;20.09;100.00
59337;BME280;45115;52.002;4.686;2022-08-19T06:29:25;101405.97;;;20.13;100.00
59337;BME280;45115;52.002;4.686;2022-08-19T06:31:53;101409.72;;;20.48;100.00
59337;BME280;45115;52.002;4.686;2022-08-19T06:34:22;101410.22;;;20.89;100.00
59337;BME280;45115;52.002;4.686;2022-08-19T06:36:50;101411.88;;;21.11;100.00
59337;BME280;45115;52.002;4.686;2022-08-19T06:39:20;101412.03;;;21.36;100.00
59337;BME280;45115;52.002;4.686;2022-08-19T06:41:49;101412.56;;;21.50;100.00
59337;BME280;45115;52.002;4.686;2022-08-19T06:44:18;101408.84;;;21.64;100.00
59337;BME280;45115;52.002;4.686;2022-08-19T06:46:44;101408.19;;;21.88;100.00
59337;BME280;45115;52.002;4.686;2022-08-19T06:49:11;101403.69;;;22.26;100.00
59337;BME280;45115;52.002;4.686;2022-08-19T06:51:40;101402.59;;;22.40;98.48
59337;BME280;45115;52.002;4.686;2022-08-19T06:54:09;101407.06;;;22.36;95.14
59337;BME280;45115;52.002;4.686;2022-08-19T06:56:37;101406.13;;;22.53;96.08
59337;BME280;45115;52.002;4.686;2022-08-19T06:59:06;101407.84;;;22.82;94.67
59337;BME280;45115;52.002;4.686;2022-08-19T07:01:36;101404.34;;;22.94;93.58
59337;BME280;45115;52.002;4.686;2022-08-19T07:04:04;101423.63;;;23.18;93.06
59337;BME280;45115;52.002;4.686;2022-08-19T07:06:31;101420.69;;;23.11;91.93
59337;BME280;45115;52.002;4.686;2022-08-19T07:08:57;101426.78;;;22.82;91.17
59337;BME280;45115;52.002;4.686;2022-08-19T07:11:24;101419.78;;;22.69;91.56
59337;BME280;45115;52.002;4.686;2022-08-19T07:13:51;101435.22;;;22.81;92.09
59337;BME280;45115;52.002;4.686;2022-08-19T07:16:19;101436.16;;;22.98;90.16
59337;BME280;45115;52.002;4.686;2022-08-19T07:18:47;101437.81;;;23.27;89.73
59337;BME280;45115;52.002;4.686;2022-08-19T07:21:17;101437.72;;;23.36;89.46
59337;BME280;45115;52.002;4.686;2022-08-19T07:23:45;101431.06;;;23.08;89.35
59337;BME280;45115;52.002;4.686;2022-08-19T07:26:15;101432.66;;;22.85;90.50
59337;BME280;45115;52.002;4.686;2022-08-19T07:28:42;101418.91;;;22.90;90.41
59337;BME280;45115;52.002;4.686;2022-08-19T07:31:12;101421.38;;;22.95;89.50
59337;BME280;45115;52.002;4.686;2022-08-19T07:33:39;101417.53;;;23.21;87.95
59337;BME280;45115;52.002;4.686;2022-08-19T07:36:11;101423.91;;;23.66;86.33
59337;BME280;45115;52.002;4.686;2022-08-19T07:38:39;101424.09;;;23.73;84.37
59337;BME280;45115;52.002;4.686;2022-08-19T07:41:07;101426.75;;;24.14;82.81
59337;BME280;45115;52.002;4.686;2022-08-19T07:43:33;101436.31;;;24.40;81.25
59337;BME280;45115;52.002;4.686;2022-08-19T07:46:00;101433.66;;;25.25;77.56
59337;BME280;45115;52.002;4.686;2022-08-19T07:48:27;101432.94;;;24.76;77.60
59337;BME280;45115;52.002;4.686;2022-08-19T07:50:55;101429.88;;;24.45;79.66
59337;BME280;45115;52.002;4.686;2022-08-19T07:53:24;101429.41;;;24.75;79.02
59337;BME280;45115;52.002;4.686;2022-08-19T07:55:51;101436.19;;;25.33;76.69
59337;BME280;45115;52.002;4.686;2022-08-19T07:58:20;101445.91;;;25.34;75.44
59337;BME280;45115;52.002;4.686;2022-08-19T08:00:48;101451.53;;;25.26;74.83
59337;BME280;45115;52.002;4.686;2022-08-19T08:03:17;101454.72;;;25.12;74.65
59337;BME280;45115;52.002;4.686;2022-08-19T08:05:45;101459.88;;;25.17;74.82
59337;BME280;45115;52.002;4.686;2022-08-19T08:08:31;101458.78;;;24.86;75.38
59337;BME280;45115;52.002;4.686;2022-08-19T08:11:17;101462.72;;;24.27;77.25
59337;BME280;45115;52.002;4.686;2022-08-19T08:13:44;101458.09;;;23.99;79.07
59337;BME280;45115;52.002;4.686;2022-08-19T08:16:11;101458.50;;;23.73;80.70
59337;BME280;45115;52.002;4.686;2022-08-19T08:18:38;101460.16;;;23.24;83.91
59337;BME280;45115;52.002;4.686;2022-08-19T08:21:07;101461.94;;;23.20;84.42
59337;BME280;45115;52.002;4.686;2022-08-19T08:23:36;101461.19;;;23.19;85.39
59337;BME280;45115;52.002;4.686;2022-08-19T08:26:02;101463.63;;;23.12;85.11
59337;BME280;45115;52.002;4.686;2022-08-19T08:28:30;101461.84;;;23.16;85.36
59337;BME280;45115;52.002;4.686;2022-08-19T08:30:58;101468.75;;;23.39;84.47
59337;BME280;45115;52.002;4.686;2022-08-19T08:33:27;101463.53;;;23.58;82.89
59337;BME280;45115;52.002;4.686;2022-08-19T08:35:55;101462.34;;;23.72;82.26
59337;BME280;45115;52.002;4.686;2022-08-19T08:38:22;101467.34;;;23.70;81.63
59337;BME280;45115;52.002;4.686;2022-08-19T08:40:53;101473.75;;;23.65;81.88
59337;BME280;45115;52.002;4.686;2022-08-19T08:43:27;101474.91;;;23.64;81.99
59337;BME280;45115;52.002;4.686;2022-08-19T08:45:59;101484.25;;;23.79;81.33
59337;BME280;45115;52.002;4.686;2022-08-19T08:48:36;101477.69;;;23.80;81.37
59337;BME280;45115;52.002;4.686;2022-08-19T08:51:07;101478.13;;;23.82;81.05
59337;BME280;45115;52.002;4.686;2022-08-19T08:53:37;101473.97;;;23.72;81.59
59337;BME280;45115;52.002;4.686;2022-08-19T08:56:06;101487.19;;;23.61;82.83
59337;BME280;45115;52.002;4.686;2022-08-19T08:58:47;101485.00;;;23.39;83.49
59337;BME280;45115;52.002;4.686;2022-08-19T09:01:15;101494.78;;;23.31;84.44
59337;BME280;45115;52.002;4.686;2022-08-19T09:03:42;101483.06;;;23.52;84.22
59337;BME280;45115;52.002;4.686;2022-08-19T09:06:14;101485.72;;;24.18;81.92
59337;BME280;45115;52.002;4.686;2022-08-19T09:08:49;101496.78;;;25.02;79.21
59337;BME280;45115;52.002;4.686;2022-08-19T09:14:13;101492.66;;;25.99;72.18
59337;BME280;45115;52.002;4.686;2022-08-19T09:16:42;101490.50;;;26.48;70.65
59337;BME280;45115;52.002;4.686;2022-08-19T09:19:09;101487.78;;;26.95;67.61
59337;BME280;45115;52.002;4.686;2022-08-19T09:21:36;101495.19;;;27.79;65.44
59337;BME280;45115;52.002;4.686;2022-08-19T09:24:04;101492.19;;;27.92;62.13
59337;BME280;45115;52.002;4.686;2022-08-19T09:26:32;101500.25;;;28.53;61.40
59337;BME280;45115;52.002;4.686;2022-08-19T09:28:59;101498.59;;;28.45;61.06
59337;BME280;45115;52.002;4.686;2022-08-19T09:31:28;101497.91;;;28.55;61.46
59337;BME280;45115;52.002;4.686;2022-08-19T09:33:55;101495.44;;;28.84;58.91
59337;BME280;45115;52.002;4.686;2022-08-19T09:36:24;101491.75;;;28.62;58.19
59337;BME280;45115;52.002;4.686;2022-08-19T09:38:52;101489.06;;;28.69;58.70
59337;BME280;45115;52.002;4.686;2022-08-19T09:41:21;101489.38;;;28.60;59.66
59337;BME280;45115;52.002;4.686;2022-08-19T09:43:51;101489.56;;;28.37;59.54
59337;BME280;45115;52.002;4.686;2022-08-19T09:46:19;101483.66;;;28.31;59.68
59337;BME280;45115;52.002;4.686;2022-08-19T09:48:46;101489.34;;;28.57;58.07
59337;BME280;45115;52.002;4.686;2022-08-19T09:51:15;101487.91;;;28.70;57.62
59337;BME280;45115;52.002;4.686;2022-08-19T09:53:43;101486.00;;;27.95;58.99
59337;BME280;45115;52.002;4.686;2022-08-19T09:56:10;101490.59;;;27.02;62.45
59337;BME280;45115;52.002;4.686;2022-08-19T09:58:38;101492.16;;;26.57;64.69
59337;BME280;45115;52.002;4.686;2022-08-19T10:01:07;101488.66;;;26.13;67.62
59337;BME280;45115;52.002;4.686;2022-08-19T10:03:35;101492.09;;;25.70;68.33
59337;BME280;45115;52.002;4.686;2022-08-19T10:06:04;101486.72;;;25.38;70.11
59337;BME280;45115;52.002;4.686;2022-08-19T10:08:35;101493.16;;;25.14;71.48
59337;BME280;45115;52.002;4.686;2022-08-19T10:11:03;101488.59;;;24.70;73.62
59337;BME280;45115;52.002;4.686;2022-08-19T10:13:31;101486.97;;;24.36;75.47
59337;BME280;45115;52.002;4.686;2022-08-19T10:16:04;101485.63;;;24.01;77.54
59337;BME280;45115;52.002;4.686;2022-08-19T10:18:32;101482.91;;;23.60;79.83
59337;BME280;45115;52.002;4.686;2022-08-19T10:21:05;101488.59;;;23.43;82.34
59337;BME280;45115;52.002;4.686;2022-08-19T10:23:36;101493.97;;;23.30;84.54
59337;BME280;45115;52.002;4.686;2022-08-19T10:26:04;101493.09;;;23.14;86.99
59337;BME280;45115;52.002;4.686;2022-08-19T10:28:32;101486.53;;;23.15;87.62
59337;BME280;45115;52.002;4.686;2022-08-19T10:31:04;101489.28;;;23.52;87.87
59337;BME280;45115;52.002;4.686;2022-08-19T10:33:33;101486.31;;;23.98;85.74
59337;BME280;45115;52.002;4.686;2022-08-19T10:36:01;101487.50;;;24.42;83.85
59337;BME280;45115;52.002;4.686;2022-08-19T10:38:27;101488.84;;;24.80;80.65
59337;BME280;45115;52.002;4.686;2022-08-19T10:40:55;101489.09;;;25.40;77.71
59337;BME280;45115;52.002;4.686;2022-08-19T10:43:22;101494.44;;;25.92;73.96
59337;BME280;45115;52.002;4.686;2022-08-19T10:45:52;101488.09;;;25.84;73.51
59337;BME280;45115;52.002;4.686;2022-08-19T10:48:20;101496.47;;;25.95;73.23
59337;BME280;45115;52.002;4.686;2022-08-19T10:50:47;101485.75;;;25.82;72.38
59337;BME280;45115;52.002;4.686;2022-08-19T10:53:32;101477.94;;;25.81;71.47
59337;BME280;45115;52.002;4.686;2022-08-19T10:55:58;101484.84;;;26.37;71.40
59337;BME280;45115;52.002;4.686;2022-08-19T10:58:42;101483.53;;;26.98;67.58
59337;BME280;45115;52.002;4.686;2022-08-19T11:01:09;101493.59;;;27.78;64.20
59337;BME280;45115;52.002;4.686;2022-08-19T11:03:36;101484.44;;;28.32;61.44
59337;BME280;45115;52.002;4.686;2022-08-19T11:06:06;101479.69;;;28.70;60.76
59337;BME280;45115;52.002;4.686;2022-08-19T11:08:34;101489.91;;;28.81;58.72
59337;BME280;45115;52.002;4.686;2022-08-19T11:11:03;101476.94;;;28.67;58.94
59337;BME280;45115;52.002;4.686;2022-08-19T11:13:32;101480.50;;;28.25;60.11
59337;BME280;45115;52.002;4.686;2022-08-19T11:16:03;101483.66;;;27.93;60.89
59337;BME280;45115;52.002;4.686;2022-08-19T11:18:30;101480.34;;;27.50;62.03
59337;BME280;45115;52.002;4.686;2022-08-19T11:21:11;101483.50;;;27.21;61.72
59337;BME280;45115;52.002;4.686;2022-08-19T11:23:39;101477.97;;;26.67;62.77
59337;BME280;45115;52.002;4.686;2022-08-19T11:26:06;101483.81;;;26.03;64.27
59337;BME280;45115;52.002;4.686;2022-08-19T11:28:33;101478.56;;;25.54;66.59
59337;BME280;45115;52.002;4.686;2022-08-19T11:31:00;101478.78;;;25.29;68.29
59337;BME280;45115;52.002;4.686;2022-08-19T11:33:28;101484.53;;;24.92;71.40
59337;BME280;45115;52.002;4.686;2022-08-19T11:35:57;101481.41;;;24.61;74.07
59337;BME280;45115;52.002;4.686;2022-08-19T11:38:25;101486.28;;;24.39;74.79
59337;BME280;45115;52.002;4.686;2022-08-19T11:40:56;101488.25;;;24.26;76.81
59337;BME280;45115;52.002;4.686;2022-08-19T11:43:23;101492.06;;;24.09;78.40
59337;BME280;45115;52.002;4.686;2022-08-19T11:45:52;101485.63;;;24.01;79.65
59337;BME280;45115;52.002;4.686;2022-08-19T11:48:18;101482.25;;;24.49;79.47
59337;BME280;45115;52.002;4.686;2022-08-19T11:50:47;101483.81;;;25.11;76.47
59337;BME280;45115;52.002;4.686;2022-08-19T11:53:14;101480.28;;;25.63;74.13
59337;BME280;45115;52.002;4.686;2022-08-19T11:55:42;101481.78;;;25.99;71.33
59337;BME280;45115;52.002;4.686;2022-08-19T11:58:10;101484.50;;;26.39;69.16
59337;BME280;45115;52.002;4.686;2022-08-19T12:00:37;101483.22;;;26.13;68.66
59337;BME280;45115;52.002;4.686;2022-08-19T12:03:04;101498.44;;;26.18;69.66
59337;BME280;45115;52.002;4.686;2022-08-19T12:05:31;101499.53;;;26.33;67.71
59337;BME280;45115;52.002;4.686;2022-08-19T12:07:57;101495.81;;;26.21;66.77
59337;BME280;45115;52.002;4.686;2022-08-19T12:10:24;101485.13;;;26.12;67.73
59337;BME280;45115;52.002;4.686;2022-08-19T12:12:52;101486.88;;;25.62;69.45
59337;BME280;45115;52.002;4.686;2022-08-19T12:15:19;101485.50;;;25.71;68.34
59337;BME280;45115;52.002;4.686;2022-08-19T12:17:45;101489.44;;;26.33;67.77
59337;BME280;45115;52.002;4.686;2022-08-19T12:20:13;101489.59;;;26.87;66.17
59337;BME280;45115;52.002;4.686;2022-08-19T12:22:41;101495.44;;;27.13;64.88
59337;BME280;45115;52.002;4.686;2022-08-19T12:25:09;101496.88;;;27.61;63.80
59337;BME280;45115;52.002;4.686;2022-08-19T12:27:36;101492.53;;;27.56;61.06
59337;BME280;45115;52.002;4.686;2022-08-19T12:30:07;101485.41;;;27.48;61.99
59337;BME280;45115;52.002;4.686;2022-08-19T12:32:34;101478.09;;;26.98;62.73
59337;BME280;45115;52.002;4.686;2022-08-19T12:35:02;101484.44;;;26.59;63.79
59337;BME280;45115;52.002;4.686;2022-08-19T12:37:28;101485.59;;;26.58;64.21
59337;BME280;45115;52.002;4.686;2022-08-19T12:39:56;101482.19;;;26.64;64.33
59337;BME280;45115;52.002;4.686;2022-08-19T12:42:23;101473.50;;;26.55;64.55
59337;BME280;45115;52.002;4.686;2022-08-19T12:44:51;101479.72;;;26.32;65.09
59337;BME280;45115;52.002;4.686;2022-08-19T12:47:19;101483.38;;;26.00;65.98
59337;BME280;45115;52.002;4.686;2022-08-19T12:49:46;101482.38;;;25.69;67.88
59337;BME280;45115;52.002;4.686;2022-08-19T12:52:14;101477.97;;;25.45;69.20
59337;BME280;45115;52.002;4.686;2022-08-19T12:54:42;101475.41;;;25.36;69.26
59337;BME280;45115;52.002;4.686;2022-08-19T12:57:10;101471.13;;;25.35;70.47